createdAt,value
2023-08-15T00:00:37.547Z,2.50
2023-08-15T00:03:05.070Z,2.20
2023-08-15T00:05:31.969Z,1.70
2023-08-15T00:08:00.150Z,2.43
2023-08-15T00:10:26.959Z,2.57
2023-08-15T00:12:53.714Z,2.00
2023-08-15T00:15:20.610Z,1.90
2023-08-15T00:17:47.426Z,2.20
2023-08-15T00:20:14.164Z,2.40
2023-08-15T00:22:41.042Z,2.27
2023-08-15T00:25:09.444Z,2.00
2023-08-15T00:27:36.193Z,1.70
2023-08-15T00:30:03.073Z,2.00
2023-08-15T00:32:29.819Z,1.90
2023-08-15T00:34:56.569Z,1.47
2023-08-15T00:37:23.586Z,2.00
2023-08-15T00:39:50.409Z,1.87
2023-08-15T00:42:18.490Z,2.00
2023-08-15T00:44:45.295Z,1.77
2023-08-15T00:47:12.779Z,1.60
2023-08-15T00:49:40.559Z,2.13
2023-08-15T00:52:07.568Z,1.83
2023-08-15T00:54:35.408Z,2.50
2023-08-15T00:57:05.600Z,2.67
2023-08-15T00:59:34.452Z,1.37
2023-08-15T01:02:01.462Z,1.77
2023-08-15T01:04:28.330Z,1.83
2023-08-15T01:06:55.346Z,1.63
2023-08-15T01:09:22.217Z,1.47
2023-08-15T01:12:05.398Z,1.77
2023-08-15T01:14:41.557Z,1.70
2023-08-15T01:17:16.466Z,2.00
2023-08-15T01:19:48.407Z,1.60
2023-08-15T01:22:17.253Z,1.80
2023-08-15T01:24:46.592Z,2.30
2023-08-15T01:27:13.674Z,1.57
2023-08-15T01:29:40.485Z,2.33
2023-08-15T01:32:15.381Z,2.17
2023-08-15T01:34:47.676Z,2.20
2023-08-15T01:37:24.276Z,5.60
2023-08-15T01:39:55.534Z,5.70
2023-08-15T01:42:24.059Z,5.53
2023-08-15T01:44:51.265Z,4.23
2023-08-15T01:47:18.369Z,5.53
2023-08-15T01:49:45.377Z,3.93
2023-08-15T01:52:12.301Z,4.27
2023-08-15T01:54:39.174Z,2.70
2023-08-15T01:57:07.334Z,3.20
2023-08-15T01:59:34.068Z,2.90
2023-08-15T02:02:00.851Z,3.17
2023-08-15T02:04:27.595Z,3.23
2023-08-15T02:06:54.455Z,2.70
2023-08-15T02:09:21.158Z,2.73
2023-08-15T02:11:47.931Z,2.40
2023-08-15T02:14:16.053Z,3.10
2023-08-15T02:16:42.842Z,2.17
2023-08-15T02:19:09.998Z,2.57
2023-08-15T02:21:36.860Z,2.10
2023-08-15T02:24:03.925Z,2.43
2023-08-15T02:26:30.689Z,2.33
2023-08-15T02:28:57.450Z,2.10
2023-08-15T02:31:27.202Z,2.80
2023-08-15T02:33:53.995Z,1.73
2023-08-15T02:36:20.805Z,3.07
2023-08-15T02:38:47.643Z,2.70
2023-08-15T02:41:14.626Z,3.07
2023-08-15T02:43:41.359Z,2.97
2023-08-15T02:46:08.150Z,3.50
2023-08-15T02:48:36.256Z,2.50
2023-08-15T02:51:05.440Z,2.90
2023-08-15T02:53:32.584Z,3.00
2023-08-15T02:55:59.375Z,2.80
2023-08-15T02:58:26.150Z,2.70
2023-08-15T03:00:52.913Z,2.90
2023-08-15T03:03:19.838Z,3.70
2023-08-15T03:05:47.932Z,3.67
2023-08-15T03:08:14.779Z,3.83
2023-08-15T03:10:41.480Z,3.10
2023-08-15T03:13:08.309Z,3.03
2023-08-15T03:15:36.678Z,3.50
2023-08-15T03:18:03.677Z,2.80
2023-08-15T03:20:30.405Z,3.80
2023-08-15T03:22:58.458Z,2.70
2023-08-15T03:25:25.612Z,3.63
2023-08-15T03:27:52.336Z,2.10
2023-08-15T03:30:19.451Z,3.67
2023-08-15T03:32:46.215Z,3.67
2023-08-15T03:35:12.982Z,3.40
2023-08-15T03:37:39.778Z,3.60
2023-08-15T03:40:09.334Z,3.30
2023-08-15T03:42:36.148Z,3.10
2023-08-15T03:45:03.342Z,3.93
2023-08-15T03:47:30.214Z,3.93
2023-08-15T03:49:56.959Z,3.67
2023-08-15T03:52:23.747Z,3.87
2023-08-15T03:54:50.490Z,3.73
2023-08-15T03:57:18.805Z,4.37
2023-08-15T03:59:45.805Z,4.80
2023-08-15T04:02:12.569Z,4.53
2023-08-15T04:04:39.367Z,3.20
2023-08-15T04:07:06.111Z,4.70
2023-08-15T04:09:32.857Z,4.33
2023-08-15T04:11:59.686Z,5.30
2023-08-15T04:14:27.752Z,4.27
2023-08-15T04:16:54.472Z,4.40
2023-08-15T04:19:21.385Z,4.53
2023-08-15T04:21:48.341Z,5.37
2023-08-15T04:24:15.153Z,4.90
2023-08-15T04:26:41.864Z,4.20
2023-08-15T04:29:08.606Z,3.67
2023-08-15T04:31:36.733Z,3.80
2023-08-15T04:34:03.579Z,4.00
2023-08-15T04:36:30.320Z,4.33
2023-08-15T04:38:57.044Z,4.00
2023-08-15T04:41:23.778Z,4.80
2023-08-15T04:43:50.519Z,3.77
2023-08-15T04:46:17.703Z,3.53
2023-08-15T04:48:45.844Z,3.47
2023-08-15T04:51:12.636Z,4.60
2023-08-15T04:53:39.607Z,4.33
2023-08-15T04:56:06.461Z,3.83
2023-08-15T04:58:33.228Z,4.20
2023-08-15T05:00:59.988Z,3.20
2023-08-15T05:03:26.720Z,3.37
2023-08-15T05:05:54.837Z,3.47
2023-08-15T05:08:21.580Z,4.67
2023-08-15T05:10:48.371Z,3.30
2023-08-15T05:13:15.483Z,3.73
2023-08-15T05:15:42.442Z,3.63
2023-08-15T05:18:11.670Z,3.33
2023-08-15T05:20:38.498Z,4.27
2023-08-15T05:23:06.548Z,2.73
2023-08-15T05:25:33.448Z,4.10
2023-08-15T05:28:04.074Z,3.57
2023-08-15T05:30:30.867Z,2.93
2023-08-15T05:32:57.712Z,4.17
2023-08-15T05:35:24.550Z,3.27
2023-08-15T05:37:51.322Z,3.27
2023-08-15T05:40:19.493Z,3.93
2023-08-15T05:42:46.311Z,3.30
2023-08-15T05:45:13.102Z,3.50
2023-08-15T05:47:39.928Z,2.40
2023-08-15T05:50:07.565Z,4.10
2023-08-15T05:52:34.841Z,3.27
2023-08-15T05:55:01.695Z,4.50
2023-08-15T05:57:29.896Z,3.40
2023-08-15T05:59:56.604Z,3.30
2023-08-15T06:02:23.313Z,3.23
2023-08-15T06:04:50.058Z,2.50
2023-08-15T06:07:16.789Z,3.10
2023-08-15T06:09:44.735Z,3.70
2023-08-15T06:12:11.547Z,3.90
2023-08-15T06:14:40.644Z,3.60
2023-08-15T06:17:07.454Z,3.10
2023-08-15T06:19:34.327Z,3.47
2023-08-15T06:22:01.072Z,4.30
2023-08-15T06:24:27.840Z,2.87
2023-08-15T06:26:54.565Z,3.80
2023-08-15T06:29:21.586Z,2.27
2023-08-15T06:31:49.792Z,4.30
2023-08-15T06:34:16.566Z,3.63
2023-08-15T06:36:43.335Z,3.80
2023-08-15T06:39:10.108Z,4.27
2023-08-15T06:41:36.865Z,2.90
2023-08-15T06:44:04.042Z,3.60
2023-08-15T06:46:31.018Z,4.10
2023-08-15T06:48:59.106Z,3.97
2023-08-15T06:51:25.892Z,3.67
2023-08-15T06:53:52.865Z,3.40
2023-08-15T06:56:19.710Z,4.17
2023-08-15T06:58:46.585Z,4.17
2023-08-15T07:01:13.603Z,4.13
2023-08-15T07:03:40.489Z,4.17
2023-08-15T07:06:08.727Z,4.37
2023-08-15T07:08:35.535Z,3.80
2023-08-15T07:11:04.039Z,4.20
2023-08-15T07:13:32.279Z,3.50
2023-08-15T07:15:59.243Z,4.10
2023-08-15T07:18:26.368Z,3.63
2023-08-15T07:20:53.644Z,3.97
2023-08-15T07:23:21.865Z,4.23
2023-08-15T07:25:48.800Z,3.90
2023-08-15T07:28:15.714Z,4.60
2023-08-15T07:30:43.869Z,3.40
2023-08-15T07:33:10.699Z,3.80
2023-08-15T07:35:37.450Z,3.60
2023-08-15T07:38:04.556Z,4.00
2023-08-15T07:40:32.731Z,3.93
2023-08-15T07:42:59.502Z,4.13
2023-08-15T07:48:16.054Z,3.73
2023-08-15T07:50:42.981Z,3.90
2023-08-15T07:53:09.724Z,4.00
2023-08-15T07:55:36.457Z,3.60
2023-08-15T07:58:03.295Z,4.60
2023-08-15T08:00:30.072Z,3.83
2023-08-15T08:02:58.308Z,3.70
2023-08-15T08:05:26.573Z,4.47
2023-08-15T08:07:53.407Z,5.47
2023-08-15T08:10:20.183Z,5.07
2023-08-15T08:12:47.313Z,5.57
2023-08-15T08:15:14.761Z,4.83
2023-08-15T08:17:41.820Z,3.80
2023-08-15T08:20:09.337Z,5.30
2023-08-15T08:22:37.471Z,5.03
2023-08-15T08:25:13.835Z,5.67
2023-08-15T08:27:40.666Z,4.53
2023-08-15T08:30:08.706Z,3.70
2023-08-15T08:32:35.452Z,4.20
2023-08-15T08:35:02.245Z,4.07
2023-08-15T08:37:28.980Z,3.67
2023-08-15T08:39:57.070Z,4.50
2023-08-15T08:42:24.772Z,4.10
2023-08-15T08:44:52.801Z,5.13
2023-08-15T08:47:20.379Z,3.37
2023-08-15T08:49:49.398Z,4.43
2023-08-15T08:52:17.161Z,5.20
2023-08-15T08:57:15.795Z,5.03
2023-08-15T08:59:44.596Z,4.97
2023-08-15T09:02:14.251Z,5.23
2023-08-15T09:04:41.850Z,6.33
2023-08-15T09:07:08.583Z,5.83
2023-08-15T09:09:35.338Z,5.07
2023-08-15T09:12:02.061Z,6.50
2023-08-15T09:14:30.395Z,6.30
2023-08-15T09:16:57.244Z,6.37
2023-08-15T09:19:24.130Z,4.70
2023-08-15T09:21:50.932Z,4.43
2023-08-15T09:24:17.718Z,5.13
2023-08-15T09:26:47.945Z,4.10
2023-08-15T09:29:14.684Z,4.40
2023-08-15T09:31:42.956Z,4.73
2023-08-15T09:34:10.708Z,4.23
2023-08-15T09:36:37.950Z,4.10
2023-08-15T09:39:07.003Z,5.67
2023-08-15T09:41:33.925Z,5.20
2023-08-15T09:44:00.794Z,4.10
2023-08-15T09:46:27.821Z,3.93
2023-08-15T09:48:56.021Z,3.53
2023-08-15T09:51:23.521Z,4.73
2023-08-15T09:53:50.256Z,4.40
2023-08-15T09:56:17.348Z,4.90
2023-08-15T09:58:44.540Z,4.97
2023-08-15T10:01:13.956Z,4.63
2023-08-15T10:03:42.288Z,4.70
2023-08-15T10:06:14.010Z,4.83
2023-08-15T10:08:43.312Z,4.90
2023-08-15T10:11:11.399Z,4.93
2023-08-15T10:13:39.876Z,4.57
2023-08-15T10:16:09.715Z,3.93
2023-08-15T10:18:51.634Z,5.60
2023-08-15T10:21:19.875Z,4.63
2023-08-15T10:23:46.813Z,4.20
2023-08-15T10:26:13.605Z,5.33
2023-08-15T10:28:41.521Z,4.90
2023-08-15T10:31:08.506Z,4.83
2023-08-15T10:33:37.824Z,4.97
2023-08-15T10:36:11.253Z,4.30
2023-08-15T10:38:43.633Z,4.37
2023-08-15T10:41:13.691Z,4.20
2023-08-15T10:43:40.740Z,4.13
2023-08-15T10:46:08.619Z,4.43
2023-08-15T10:49:03.034Z,3.87
2023-08-15T10:51:33.591Z,4.70
2023-08-15T10:54:03.323Z,4.00
2023-08-15T10:56:31.438Z,3.83
2023-08-15T10:58:59.091Z,4.27
2023-08-15T11:01:28.247Z,3.43
2023-08-15T11:03:56.822Z,3.80
2023-08-15T11:06:24.009Z,3.97
2023-08-15T11:08:51.796Z,3.83
2023-08-15T11:11:20.036Z,4.70
2023-08-15T11:13:48.948Z,4.40
2023-08-15T11:16:17.133Z,4.47
2023-08-15T11:18:44.641Z,3.73
2023-08-15T11:21:12.844Z,3.43
2023-08-15T11:23:40.379Z,3.70
2023-08-15T11:26:08.932Z,3.60
2023-08-15T11:28:38.215Z,3.83
2023-08-15T11:31:16.563Z,3.70
2023-08-15T11:33:50.688Z,3.43
2023-08-15T11:36:17.601Z,4.10
2023-08-15T11:38:44.569Z,3.50
2023-08-15T11:41:11.456Z,3.80
2023-08-15T11:43:40.418Z,3.33
2023-08-15T11:46:07.624Z,3.30
2023-08-15T11:48:35.127Z,3.57
2023-08-15T11:51:02.260Z,3.70
2023-08-15T11:53:29.098Z,3.33
2023-08-15T11:55:56.141Z,3.70
2023-08-15T11:58:24.830Z,3.73
2023-08-15T12:00:57.219Z,3.00
2023-08-15T12:03:25.701Z,3.50
2023-08-15T12:05:55.222Z,3.53
2023-08-15T12:08:22.083Z,3.60
2023-08-15T12:10:48.895Z,3.13
2023-08-15T12:13:15.640Z,2.93
2023-08-15T12:15:42.527Z,3.30
2023-08-15T12:18:10.746Z,2.80
2023-08-15T12:20:37.655Z,2.83
2023-08-15T12:23:07.399Z,3.40
2023-08-15T12:25:34.418Z,3.13
2023-08-15T12:28:01.138Z,3.00
2023-08-15T12:30:29.121Z,3.10
2023-08-15T12:32:58.167Z,3.10
2023-08-15T12:35:26.277Z,3.40
2023-08-15T12:37:53.189Z,2.70
2023-08-15T12:40:30.707Z,2.00
2023-08-15T12:42:58.229Z,2.20
2023-08-15T12:45:25.305Z,1.90
2023-08-15T12:47:52.199Z,1.90
2023-08-15T12:50:19.386Z,2.07
2023-08-15T12:52:47.575Z,1.87
2023-08-15T12:55:16.903Z,1.70
2023-08-15T12:57:43.691Z,1.90
2023-08-15T13:00:11.556Z,1.90
2023-08-15T13:02:38.918Z,2.30
2023-08-15T13:05:06.839Z,2.00
2023-08-15T13:07:35.154Z,1.77
2023-08-15T13:10:07.360Z,1.30
2023-08-15T13:12:34.239Z,1.13
2023-08-15T13:15:01.494Z,1.47
2023-08-15T13:17:28.264Z,1.40
2023-08-15T13:19:55.678Z,1.70
2023-08-15T13:22:24.083Z,1.63
2023-08-15T13:24:53.823Z,1.33
2023-08-15T13:27:22.005Z,1.20
2023-08-15T13:29:48.762Z,1.50
2023-08-15T13:32:15.596Z,1.43
2023-08-15T13:34:42.379Z,1.27
2023-08-15T13:37:09.142Z,1.37
2023-08-15T13:39:35.970Z,1.57
2023-08-15T13:42:02.890Z,1.27
2023-08-15T13:44:31.049Z,1.20
2023-08-15T13:46:57.828Z,1.30
2023-08-15T13:49:24.592Z,1.20
2023-08-15T13:51:51.330Z,1.03
2023-08-15T13:54:18.061Z,1.40
2023-08-15T13:56:44.836Z,1.23
2023-08-15T13:59:11.634Z,1.00
2023-08-15T14:01:39.753Z,1.00
2023-08-15T14:04:06.951Z,1.10
2023-08-15T14:06:33.791Z,1.10
2023-08-15T14:09:00.577Z,1.00
2023-08-15T14:11:27.387Z,1.27
2023-08-15T14:13:54.271Z,1.00
2023-08-15T14:16:21.248Z,1.20
2023-08-15T14:18:49.416Z,1.00
2023-08-15T14:21:16.207Z,0.87
2023-08-15T14:23:43.037Z,0.90
2023-08-15T14:26:09.827Z,1.00
2023-08-15T14:28:36.652Z,0.90
2023-08-15T14:31:04.322Z,1.07
2023-08-15T14:33:31.068Z,0.87
2023-08-15T14:35:59.274Z,1.00
2023-08-15T14:38:26.154Z,0.80
2023-08-15T14:40:52.960Z,0.80
2023-08-15T14:43:19.748Z,0.83
2023-08-15T14:45:46.503Z,0.90
2023-08-15T14:48:13.319Z,1.10
2023-08-15T14:50:40.062Z,1.40
2023-08-15T14:53:08.174Z,1.00
2023-08-15T14:55:34.986Z,0.97
2023-08-15T14:58:01.752Z,1.00
2023-08-15T15:00:28.468Z,1.00
2023-08-15T15:02:55.376Z,1.00
2023-08-15T15:05:22.264Z,1.10
2023-08-15T15:07:49.043Z,1.30
2023-08-15T15:10:17.500Z,1.10
2023-08-15T15:12:45.385Z,0.90
2023-08-15T15:15:12.244Z,1.00
2023-08-15T15:17:39.096Z,1.20
2023-08-15T15:20:07.015Z,1.27
2023-08-15T15:22:34.026Z,1.10
2023-08-15T15:25:01.119Z,1.07
2023-08-15T15:27:29.557Z,1.63
2023-08-15T15:29:56.300Z,1.10
2023-08-15T15:32:23.303Z,1.30
2023-08-15T15:34:50.341Z,1.10
2023-08-15T15:37:17.063Z,1.23
2023-08-15T15:39:43.823Z,1.40
2023-08-15T15:42:10.567Z,1.70
2023-08-15T15:44:38.647Z,1.40
2023-08-15T15:47:05.671Z,1.63
2023-08-15T15:49:32.508Z,1.50
2023-08-15T15:51:59.406Z,1.50
2023-08-15T15:54:26.178Z,1.50
2023-08-15T15:56:53.203Z,1.67
2023-08-15T15:59:19.947Z,1.30
2023-08-15T16:01:48.196Z,1.60
2023-08-15T16:04:14.982Z,1.30
2023-08-15T16:06:41.896Z,1.70
2023-08-15T16:09:08.749Z,1.90
2023-08-15T16:11:35.570Z,1.77
2023-08-15T16:14:02.310Z,1.60
2023-08-15T16:16:29.198Z,1.80
2023-08-15T16:18:57.294Z,3.03
2023-08-15T16:21:24.070Z,2.70
2023-08-15T16:23:50.825Z,2.30
2023-08-15T16:26:19.257Z,2.57
2023-08-15T16:28:46.007Z,2.00
2023-08-15T16:31:12.823Z,1.70
2023-08-15T16:33:39.640Z,2.47
2023-08-15T16:36:07.918Z,1.83
2023-08-15T16:38:34.740Z,1.90
2023-08-15T16:41:01.658Z,1.73
2023-08-15T16:43:28.583Z,1.90
2023-08-15T16:45:55.442Z,2.30
2023-08-15T16:48:22.389Z,1.63
2023-08-15T16:50:49.383Z,3.70
2023-08-15T16:53:18.628Z,2.47
2023-08-15T16:55:47.293Z,2.20
2023-08-15T16:58:14.491Z,2.37
2023-08-15T17:00:41.553Z,3.40
2023-08-15T17:03:08.508Z,2.27
2023-08-15T17:05:35.695Z,2.67
2023-08-15T17:08:02.765Z,2.87
2023-08-15T17:10:31.034Z,2.70
2023-08-15T17:12:57.835Z,3.17
2023-08-15T17:15:24.948Z,3.27
2023-08-15T17:17:51.784Z,3.27
2023-08-15T17:20:18.839Z,3.37
2023-08-15T17:22:45.972Z,3.33
2023-08-15T17:25:12.797Z,2.97
2023-08-15T17:27:41.125Z,2.60
2023-08-15T17:30:08.853Z,4.03
2023-08-15T17:32:35.776Z,3.43
2023-08-15T17:35:02.644Z,3.70
2023-08-15T17:37:29.474Z,3.77
2023-08-15T17:39:56.312Z,3.53
2023-08-15T17:42:23.531Z,4.37
2023-08-15T17:44:52.018Z,3.93
2023-08-15T17:47:19.266Z,3.57
2023-08-15T17:49:46.191Z,3.60
2023-08-15T17:52:13.110Z,2.80
2023-08-15T17:54:39.961Z,3.00
2023-08-15T17:57:06.915Z,3.03
2023-08-15T17:59:33.866Z,3.20
2023-08-15T18:02:02.369Z,4.53
2023-08-15T18:04:29.282Z,4.20
2023-08-15T18:06:56.152Z,3.80
2023-08-15T18:09:25.441Z,4.10
2023-08-15T18:11:52.752Z,4.10
2023-08-15T18:14:20.643Z,5.00
2023-08-15T18:16:49.989Z,4.10
2023-08-15T18:19:20.893Z,4.70
2023-08-15T18:21:47.659Z,4.60
2023-08-15T18:24:14.636Z,3.80
2023-08-15T18:26:41.491Z,3.80
2023-08-15T18:29:08.324Z,4.40
2023-08-15T18:31:35.091Z,3.60
2023-08-15T18:34:01.844Z,3.47
2023-08-15T18:36:29.970Z,4.40
2023-08-15T18:38:57.023Z,4.10
2023-08-15T18:41:23.794Z,4.30
2023-08-15T18:43:50.589Z,3.70
2023-08-15T18:46:17.475Z,3.40
2023-08-15T18:48:44.233Z,3.53
2023-08-15T18:51:11.045Z,4.00
2023-08-15T18:53:39.119Z,3.10
2023-08-15T18:56:05.888Z,4.40
2023-08-15T18:58:32.627Z,4.23
2023-08-15T19:00:59.388Z,4.07
2023-08-15T19:03:26.178Z,4.67
2023-08-15T19:05:53.046Z,4.40
2023-08-15T19:08:19.883Z,5.23
2023-08-15T19:10:47.945Z,4.00
2023-08-15T19:13:14.711Z,3.77
2023-08-15T19:15:43.427Z,4.30
2023-08-15T19:18:10.385Z,4.37
2023-08-15T19:20:38.206Z,3.73
2023-08-15T19:23:05.475Z,4.00
2023-08-15T19:25:32.276Z,3.93
2023-08-15T19:28:00.443Z,4.40
2023-08-15T19:30:27.227Z,3.40
2023-08-15T19:32:54.069Z,3.47
2023-08-15T19:35:21.541Z,4.30
2023-08-15T19:37:48.238Z,3.73
2023-08-15T19:40:15.020Z,3.80
2023-08-15T19:42:43.560Z,4.10
2023-08-15T19:45:13.910Z,3.90
2023-08-15T19:47:41.810Z,3.80
2023-08-15T19:50:10.719Z,4.00
2023-08-15T19:52:38.001Z,4.50
2023-08-15T19:55:05.530Z,4.17
2023-08-15T19:57:32.744Z,3.77
2023-08-15T19:59:59.791Z,3.40
2023-08-15T20:02:28.078Z,2.83
2023-08-15T20:04:54.975Z,2.50
2023-08-15T20:07:22.159Z,2.63
2023-08-15T20:09:59.276Z,2.30
2023-08-15T20:12:31.321Z,2.97
2023-08-15T20:14:58.094Z,3.20
2023-08-15T20:17:25.228Z,3.70
2023-08-15T20:19:54.137Z,3.13
2023-08-15T20:22:21.231Z,3.10
2023-08-15T20:24:48.298Z,2.67
2023-08-15T20:27:15.182Z,3.00
2023-08-15T20:29:42.270Z,2.57
2023-08-15T20:32:09.449Z,2.53
2023-08-15T20:34:36.298Z,2.90
2023-08-15T20:37:04.691Z,3.40
2023-08-15T20:39:31.492Z,3.10
2023-08-15T20:41:58.377Z,2.90
2023-08-15T20:44:25.161Z,3.37
2023-08-15T20:46:51.986Z,3.13
2023-08-15T20:49:18.843Z,2.80
2023-08-15T20:51:45.703Z,2.80
2023-08-15T20:54:13.873Z,2.97
2023-08-15T20:56:40.757Z,2.60
2023-08-15T20:59:07.674Z,4.17
2023-08-15T21:01:34.667Z,2.43
2023-08-15T21:04:01.512Z,2.27
2023-08-15T21:06:28.315Z,2.17
2023-08-15T21:08:55.156Z,2.10
2023-08-15T21:11:23.241Z,2.73
2023-08-15T21:13:50.045Z,1.97
2023-08-15T21:16:16.839Z,2.23
2023-08-15T21:18:43.660Z,1.93
2023-08-15T21:21:10.402Z,2.13
2023-08-15T21:23:37.202Z,2.23
2023-08-15T21:26:04.206Z,2.30
2023-08-15T21:28:32.352Z,2.40
2023-08-15T21:30:59.111Z,2.30
2023-08-15T21:33:26.007Z,1.87
2023-08-15T21:35:53.120Z,2.10
2023-08-15T21:38:20.218Z,2.00
2023-08-15T21:40:47.622Z,1.83
2023-08-15T21:43:14.635Z,1.90
2023-08-15T21:45:43.754Z,2.00
2023-08-15T21:48:10.917Z,1.87
2023-08-15T21:50:38.070Z,1.63
2023-08-15T21:53:05.345Z,1.90
2023-08-15T21:55:32.331Z,2.20
2023-08-15T21:57:59.401Z,2.10
2023-08-15T22:00:27.219Z,2.33
2023-08-15T22:02:55.857Z,2.93
2023-08-15T22:05:22.860Z,2.60
2023-08-15T22:07:49.595Z,2.90
2023-08-15T22:10:16.432Z,2.13
2023-08-15T22:12:43.277Z,2.70
2023-08-15T22:15:10.614Z,2.43
2023-08-15T22:17:45.072Z,2.70
2023-08-15T22:20:15.067Z,2.77
2023-08-15T22:22:42.443Z,2.53
2023-08-15T22:25:09.920Z,2.60
2023-08-15T22:27:36.775Z,2.30
2023-08-15T22:30:04.238Z,1.90
2023-08-15T22:32:31.056Z,2.40
2023-08-15T22:34:57.818Z,2.17
2023-08-15T22:37:25.933Z,3.30
2023-08-15T22:39:52.790Z,2.50
2023-08-15T22:42:19.656Z,2.17
2023-08-15T22:44:46.474Z,2.67
2023-08-15T22:47:13.424Z,1.90
2023-08-15T22:49:40.164Z,2.33
2023-08-15T22:52:06.953Z,2.67
2023-08-15T22:54:35.034Z,2.30
2023-08-15T22:57:01.858Z,2.47
2023-08-15T22:59:28.633Z,1.90
2023-08-15T23:01:55.590Z,2.63
2023-08-15T23:04:22.389Z,2.63
2023-08-15T23:06:49.337Z,2.00
2023-08-15T23:09:16.211Z,2.50
2023-08-15T23:11:44.348Z,2.60
2023-08-15T23:14:11.095Z,2.27
2023-08-15T23:16:37.935Z,2.07
2023-08-15T23:19:04.824Z,3.10
2023-08-15T23:21:31.592Z,2.33
2023-08-15T23:23:58.490Z,2.63
2023-08-15T23:26:25.536Z,2.20
2023-08-15T23:28:53.666Z,2.40
2023-08-15T23:31:20.471Z,1.93
2023-08-15T23:33:47.298Z,2.60
2023-08-15T23:36:14.156Z,2.53
2023-08-15T23:38:40.950Z,2.47
2023-08-15T23:41:08.553Z,2.07
2023-08-15T23:43:35.389Z,2.60
2023-08-15T23:46:03.774Z,2.97
2023-08-15T23:48:30.657Z,2.80
2023-08-15T23:50:57.393Z,2.90
2023-08-15T23:53:24.159Z,2.60
2023-08-15T23:55:51.435Z,2.23
2023-08-15T23:58:18.424Z,2.13
